Time;durP1;ratioP1;P1;durP2;ratioP2;P2;SDS_P1;SDS_P2;PMS_P1;PMS_P2;Temp;Humidity;BMP_temperature;BMP_pressure;BME280_temperature;BME280_humidity;BME280_pressure;Samples;Min_cycle;Max_cycle;Signal;HPM_P1;HPM_P2
2021/06/21 00:00:11;;;;;;;34.73;23.83;;;17.70;99.90;;;;;;5072502;28;20717;-84
2021/06/21 00:02:39;;;;;;;35.20;23.47;;;17.70;99.90;;;;;;5070394;28;20277;-80
2021/06/21 00:05:07;;;;;;;34.27;23.47;;;17.70;99.90;;;;;;5064769;28;20200;-83
2021/06/21 00:07:34;;;;;;;35.43;23.03;;;17.60;99.90;;;;;;5052094;28;20203;-80
2021/06/21 00:10:04;;;;;;;37.20;24.47;;;17.60;99.90;;;;;;5054092;28;20634;-84
2021/06/21 00:12:31;;;;;;;38.23;24.83;;;17.60;99.90;;;;;;5054192;28;20291;-80
2021/06/21 00:14:58;;;;;;;38.07;25.60;;;17.60;99.90;;;;;;5053826;28;20204;-81
2021/06/21 00:17:24;;;;;;;39.10;24.97;;;17.60;99.90;;;;;;5044650;28;20209;-80
2021/06/21 00:19:51;;;;;;;34.40;24.63;;;17.70;99.90;;;;;;5045561;28;20287;-80
2021/06/21 00:22:19;;;;;;;41.37;26.07;;;17.70;99.90;;;;;;5054466;28;20227;-81
2021/06/21 00:24:46;;;;;;;36.97;26.13;;;17.70;99.90;;;;;;5053942;28;20595;-83
2021/06/21 00:27:15;;;;;;;41.10;26.00;;;17.70;99.90;;;;;;5048210;28;20292;-79
2021/06/21 00:29:42;;;;;;;40.17;26.73;;;17.70;99.90;;;;;;5045836;28;20673;-80
2021/06/21 00:32:09;;;;;;;51.03;27.50;;;17.70;99.90;;;;;;5053389;28;20192;-80
2021/06/21 00:34:36;;;;;;;41.10;27.60;;;17.60;99.90;;;;;;5053965;28;20282;-80
2021/06/21 00:37:03;;;;;;;44.17;27.30;;;17.70;99.90;;;;;;5054831;28;20198;-81
2021/06/21 00:39:30;;;;;;;40.73;26.70;;;17.60;99.90;;;;;;5053857;28;20206;-82
2021/06/21 00:41:57;;;;;;;47.07;27.80;;;17.60;99.90;;;;;;5054845;28;20196;-85
2021/06/21 00:44:25;;;;;;;44.87;27.90;;;17.60;99.90;;;;;;5054912;28;20242;-79
2021/06/21 00:46:52;;;;;;;41.87;27.80;;;17.70;99.90;;;;;;5050436;28;20224;-80
2021/06/21 00:49:19;;;;;;;38.50;26.87;;;17.60;99.90;;;;;;5054959;28;20307;-79
2021/06/21 00:51:46;;;;;;;40.03;27.77;;;17.70;99.90;;;;;;5054680;28;20228;-79
2021/06/21 00:54:13;;;;;;;45.57;28.73;;;17.60;99.90;;;;;;5056150;28;20286;-79
2021/06/21 00:56:40;;;;;;;43.97;28.53;;;17.60;99.90;;;;;;5054787;28;20200;-80
2021/06/21 00:59:07;;;;;;;44.47;28.53;;;17.70;99.90;;;;;;5056094;28;20306;-79
2021/06/21 01:01:35;;;;;;;44.87;27.63;;;17.80;99.90;;;;;;5045230;28;20192;-80
2021/06/21 01:04:02;;;;;;;39.63;26.97;;;17.80;99.90;;;;;;5052084;28;20649;-81
2021/06/21 01:06:31;;;;;;;39.67;27.13;;;17.70;99.90;;;;;;5054418;28;20681;-82
2021/06/21 01:08:58;;;;;;;42.43;27.27;;;17.70;99.90;;;;;;5053055;28;20281;-80
2021/06/21 01:11:35;;;;;;;41.30;27.70;;;17.60;99.90;;;;;;5052871;28;20203;-80
2021/06/21 01:14:09;;;;;;;41.73;25.83;;;17.60;99.90;;;;;;5053397;28;20279;-80
2021/06/21 01:16:43;;;;;;;40.90;26.23;;;17.70;99.90;;;;;;5052831;28;20192;-79
2021/06/21 01:19:17;;;;;;;40.83;24.77;;;17.80;99.90;;;;;;5052919;28;20283;-81
2021/06/21 01:22:16;;;;;;;37.00;24.77;;;17.80;99.90;;;;;;5053122;28;20196;-79
2021/06/21 01:25:05;;;;;;;37.13;23.93;;;17.70;99.90;;;;;;5040070;28;20287;-84
2021/06/21 01:27:41;;;;;;;38.23;24.13;;;17.60;99.90;;;;;;5038214;28;20701;-82
2021/06/21 01:30:11;;;;;;;36.83;23.83;;;17.60;99.90;;;;;;5051754;28;20295;-78
2021/06/21 01:32:43;;;;;;;36.17;23.43;;;17.60;99.90;;;;;;5052954;28;20283;-78
2021/06/21 01:35:16;;;;;;;33.13;21.23;;;17.60;99.90;;;;;;5052587;28;20657;-79
2021/06/21 01:37:46;;;;;;;33.10;22.10;;;17.50;99.90;;;;;;5053232;28;20198;-79
2021/06/21 01:40:16;;;;;;;29.17;21.27;;;17.40;99.90;;;;;;5052936;28;20287;-82
2021/06/21 01:42:47;;;;;;;33.47;21.97;;;17.30;99.90;;;;;;5052639;28;20197;-81
2021/06/21 01:45:17;;;;;;;34.23;21.00;;;17.30;99.90;;;;;;5052470;28;20206;-79
2021/06/21 01:47:48;;;;;;;30.63;21.40;;;17.30;99.90;;;;;;5052885;28;20199;-83
2021/06/21 01:50:18;;;;;;;30.90;21.93;;;17.30;99.90;;;;;;5052540;28;20283;-80
2021/06/21 01:52:47;;;;;;;31.70;22.37;;;17.30;99.90;;;;;;5048392;28;20269;-79
2021/06/21 01:55:19;;;;;;;36.83;23.73;;;17.40;99.90;;;;;;5053074;28;20515;-84
2021/06/21 01:57:47;;;;;;;34.07;23.37;;;17.30;99.90;;;;;;5052444;28;20196;-79
2021/06/21 02:00:15;;;;;;;37.67;23.83;;;17.30;99.90;;;;;;5052831;28;20204;-79
2021/06/21 02:02:43;;;;;;;35.70;22.97;;;17.40;99.90;;;;;;5052437;28;20325;-79
2021/06/21 02:05:15;;;;;;;31.97;22.23;;;17.30;99.90;;;;;;5052687;28;20200;-81
2021/06/21 02:07:46;;;;;;;33.50;22.83;;;17.30;99.90;;;;;;5049200;28;20207;-80
2021/06/21 02:10:14;;;;;;;34.90;23.13;;;17.40;99.90;;;;;;5050644;28;20577;-79
2021/06/21 02:12:43;;;;;;;32.60;22.97;;;17.40;99.90;;;;;;5049378;28;20220;-80
2021/06/21 02:15:11;;;;;;;31.17;20.93;;;17.40;99.90;;;;;;5038325;28;20279;-79
2021/06/21 02:17:39;;;;;;;32.07;21.27;;;17.30;99.90;;;;;;5052159;28;20277;-82
2021/06/21 02:20:08;;;;;;;28.77;20.83;;;17.30;99.90;;;;;;5052336;28;20196;-82
2021/06/21 02:22:37;;;;;;;29.13;21.20;;;17.20;99.90;;;;;;5052538;28;20228;-83
2021/06/21 02:25:07;;;;;;;36.53;23.00;;;17.20;99.90;;;;;;5052925;28;20226;-79
2021/06/21 02:27:36;;;;;;;31.73;20.97;;;17.20;99.90;;;;;;5038218;28;20274;-79
2021/06/21 02:30:05;;;;;;;34.07;21.07;;;17.10;99.90;;;;;;5052292;28;20250;-83
2021/06/21 02:32:32;;;;;;;38.37;22.80;;;17.20;99.90;;;;;;5038383;28;20192;-79
2021/06/21 02:34:59;;;;;;;36.63;23.33;;;17.20;99.90;;;;;;5041078;28;20225;-79
2021/06/21 02:37:25;;;;;;;37.33;24.53;;;17.20;99.90;;;;;;5047615;28;20654;-79
2021/06/21 02:39:54;;;;;;;32.00;22.77;;;17.30;99.90;;;;;;5051805;28;20291;-83
2021/06/21 02:42:21;;;;;;;34.90;22.17;;;17.20;99.90;;;;;;5054464;28;20219;-81
2021/06/21 02:44:48;;;;;;;34.60;23.17;;;17.10;99.90;;;;;;5055915;28;20610;-81
2021/06/21 02:47:15;;;;;;;31.47;21.63;;;17.10;99.90;;;;;;5055551;28;20656;-81
2021/06/21 02:49:43;;;;;;;29.33;21.17;;;17.10;99.90;;;;;;5055350;28;20261;-80
2021/06/21 02:52:15;;;;;;;28.77;22.00;;;17.00;99.90;;;;;;5064046;28;20298;-83
2021/06/21 02:54:53;;;;;;;29.33;21.50;;;17.10;99.90;;;;;;5058362;28;20701;-83
2021/06/21 02:57:29;;;;;;;28.53;21.63;;;17.10;99.90;;;;;;5061810;28;20274;-81
2021/06/21 02:59:58;;;;;;;26.83;20.53;;;17.00;99.90;;;;;;5056474;28;20299;-79
2021/06/21 03:02:26;;;;;;;31.87;20.43;;;17.00;99.90;;;;;;5061323;28;20199;-82
2021/06/21 03:04:54;;;;;;;26.00;20.27;;;17.00;99.90;;;;;;5063837;28;20210;-82
2021/06/21 03:07:23;;;;;;;32.40;22.63;;;17.00;99.90;;;;;;5056332;28;20223;-80
2021/06/21 03:09:50;;;;;;;27.23;20.40;;;16.90;99.90;;;;;;5064417;28;20561;-81
2021/06/21 03:12:21;;;;;;;24.83;19.30;;;17.00;99.90;;;;;;5066072;28;20276;-80
2021/06/21 03:14:50;;;;;;;23.37;18.50;;;17.00;99.90;;;;;;5065771;28;20184;-84
2021/06/21 03:17:18;;;;;;;23.37;16.00;;;16.90;99.90;;;;;;5062536;28;20315;-82
2021/06/21 03:19:45;;;;;;;22.83;16.73;;;16.80;99.90;;;;;;5054894;28;20717;-83
2021/06/21 03:22:13;;;;;;;26.43;19.30;;;16.90;99.90;;;;;;5054892;28;20516;-79
2021/06/21 03:24:40;;;;;;;23.63;18.20;;;16.80;99.90;;;;;;5055514;28;20303;-79
2021/06/21 03:27:08;;;;;;;25.30;17.03;;;16.80;99.90;;;;;;5054739;28;20231;-79
2021/06/21 03:29:37;;;;;;;18.80;14.63;;;16.70;99.90;;;;;;5054697;28;20255;-79
2021/06/21 03:32:25;;;;;;;20.03;14.63;;;16.60;99.90;;;;;;5054829;28;20196;-80
2021/06/21 03:34:52;;;;;;;14.97;12.03;;;16.50;99.90;;;;;;5054984;28;20199;-80
2021/06/21 03:37:19;;;;;;;13.07;11.00;;;16.30;99.90;;;;;;5056702;28;20218;-80
2021/06/21 03:39:46;;;;;;;12.93;10.10;;;16.10;99.90;;;;;;5054603;28;20255;-79
2021/06/21 03:42:13;;;;;;;12.43;10.70;;;16.10;99.90;;;;;;5056790;28;20279;-79
2021/06/21 03:44:40;;;;;;;14.80;11.20;;;16.10;99.90;;;;;;5055284;28;20192;-78
2021/06/21 03:47:10;;;;;;;14.30;11.43;;;16.10;99.90;;;;;;5056604;28;20279;-79
2021/06/21 03:49:38;;;;;;;15.47;11.00;;;16.10;99.90;;;;;;5053827;28;20232;-80
2021/06/21 03:52:05;;;;;;;15.17;11.67;;;16.00;99.90;;;;;;5058293;28;20291;-79
2021/06/21 03:54:32;;;;;;;15.83;12.33;;;16.00;99.90;;;;;;5058503;28;20211;-80
2021/06/21 03:56:59;;;;;;;16.33;12.43;;;16.10;99.90;;;;;;5062048;28;20278;-80
2021/06/21 03:59:26;;;;;;;14.37;11.97;;;16.10;99.90;;;;;;5059259;28;20295;-82
2021/06/21 04:01:55;;;;;;;15.17;12.00;;;15.90;99.90;;;;;;5065229;28;20290;-80
2021/06/21 04:04:23;;;;;;;18.00;11.80;;;15.80;99.90;;;;;;5058840;28;20220;-80
2021/06/21 04:06:50;;;;;;;15.20;11.90;;;15.80;99.90;;;;;;5052754;28;20560;-80
2021/06/21 04:09:17;;;;;;;15.33;11.10;;;15.80;99.90;;;;;;5060534;28;20231;-83
2021/06/21 04:11:45;;;;;;;17.67;11.67;;;15.70;99.90;;;;;;5057588;28;20657;-80
2021/06/21 04:14:12;;;;;;;14.30;11.47;;;15.60;99.90;;;;;;5066524;28;20191;-79
2021/06/21 04:16:39;;;;;;;15.57;11.60;;;15.70;99.90;;;;;;5068195;28;20563;-79
2021/06/21 04:19:06;;;;;;;16.80;11.90;;;15.60;99.90;;;;;;5053873;28;20288;-80
2021/06/21 04:21:35;;;;;;;16.83;11.17;;;15.60;99.90;;;;;;5053963;28;20257;-80
2021/06/21 04:24:02;;;;;;;15.50;10.63;;;15.60;99.90;;;;;;5053819;28;20208;-78
2021/06/21 04:26:29;;;;;;;15.63;11.90;;;15.50;99.90;;;;;;5053882;28;20204;-79
2021/06/21 04:28:56;;;;;;;15.27;11.57;;;15.60;99.90;;;;;;5039752;28;20224;-79
2021/06/21 04:31:23;;;;;;;13.67;11.70;;;15.50;99.90;;;;;;5045684;28;20273;-79
2021/06/21 04:33:50;;;;;;;17.17;12.50;;;15.50;99.90;;;;;;5053472;28;20677;-80
2021/06/21 04:36:17;;;;;;;16.60;12.37;;;15.50;99.90;;;;;;5053949;28;20298;-83
2021/06/21 04:38:45;;;;;;;15.17;12.33;;;15.50;99.90;;;;;;5053768;28;20228;-79
2021/06/21 04:41:12;;;;;;;17.20;12.73;;;15.50;99.90;;;;;;5053777;28;20208;-79
2021/06/21 04:43:39;;;;;;;14.57;11.50;;;15.60;99.90;;;;;;5043251;28;20275;-78
2021/06/21 04:46:06;;;;;;;16.33;12.70;;;15.40;99.90;;;;;;5059164;28;20286;-83
2021/06/21 04:48:33;;;;;;;13.67;11.10;;;15.40;99.90;;;;;;5071752;28;20663;-79
2021/06/21 04:50:59;;;;;;;14.73;11.30;;;15.40;99.90;;;;;;5052818;28;20251;-83
2021/06/21 04:53:27;;;;;;;17.43;12.30;;;15.50;99.90;;;;;;5053548;28;20298;-80
2021/06/21 04:55:58;;;;;;;14.97;11.83;;;15.50;99.90;;;;;;5048583;28;20191;-80
2021/06/21 04:58:25;;;;;;;15.90;11.90;;;15.40;99.90;;;;;;5063171;28;20290;-80
2021/06/21 05:00:52;;;;;;;15.50;11.50;;;15.50;99.90;;;;;;5052456;28;20247;-81
2021/06/21 05:03:19;;;;;;;15.93;12.10;;;15.40;99.90;;;;;;5050985;28;20235;-82
2021/06/21 05:05:45;;;;;;;17.73;11.73;;;15.30;99.90;;;;;;5061087;28;20235;-80
2021/06/21 05:08:12;;;;;;;18.83;12.57;;;15.30;99.90;;;;;;5057813;28;20246;-79
2021/06/21 05:10:39;;;;;;;14.40;10.83;;;15.30;99.90;;;;;;5052775;28;20306;-84
2021/06/21 05:13:09;;;;;;;17.00;12.13;;;15.30;99.90;;;;;;5052348;28;20663;-79
2021/06/21 05:15:36;;;;;;;15.90;10.93;;;15.40;99.90;;;;;;5051452;28;20205;-80
2021/06/21 05:18:03;;;;;;;13.50;10.97;;;15.30;99.90;;;;;;5051691;28;20654;-80
2021/06/21 05:20:30;;;;;;;12.97;10.30;;;15.30;99.90;;;;;;5052741;28;20212;-80
2021/06/21 05:22:57;;;;;;;12.13;10.50;;;15.30;99.90;;;;;;5052999;28;20273;-82
2021/06/21 05:25:24;;;;;;;14.50;10.83;;;15.40;99.90;;;;;;5048041;28;20224;-83
2021/06/21 05:27:51;;;;;;;13.33;9.33;;;15.40;99.90;;;;;;5051251;28;20665;-80
2021/06/21 05:30:20;;;;;;;13.17;9.30;;;15.30;99.90;;;;;;5068037;28;20219;-79
2021/06/21 05:32:47;;;;;;;12.93;9.30;;;15.30;99.90;;;;;;5059630;28;20196;-82
2021/06/21 05:35:15;;;;;;;12.90;8.93;;;15.30;99.90;;;;;;5048073;28;20242;-80
2021/06/21 05:37:42;;;;;;;10.83;8.60;;;15.20;99.90;;;;;;5070468;28;20691;-80
2021/06/21 05:40:10;;;;;;;11.77;8.57;;;15.30;99.90;;;;;;5058096;28;20548;-82
2021/06/21 05:42:37;;;;;;;10.30;8.60;;;15.30;99.90;;;;;;5046932;28;20199;-82
2021/06/21 05:45:05;;;;;;;13.43;9.50;;;15.30;99.90;;;;;;5041647;28;20294;-84
2021/06/21 05:47:33;;;;;;;11.57;9.10;;;15.30;99.90;;;;;;5048141;28;20235;-83
2021/06/21 05:50:00;;;;;;;11.40;9.03;;;15.20;99.90;;;;;;5048583;28;20319;-82
2021/06/21 05:52:27;;;;;;;13.73;9.23;;;15.30;99.90;;;;;;5039387;28;20624;-81
2021/06/21 05:54:58;;;;;;;14.53;8.97;;;15.40;99.90;;;;;;5041040;28;20290;-82
2021/06/21 05:57:26;;;;;;;12.00;9.47;;;15.50;99.90;;;;;;5052523;28;20709;-83
2021/06/21 05:59:53;;;;;;;12.53;10.40;;;15.50;99.90;;;;;;5036350;28;20200;-83
2021/06/21 06:02:21;;;;;;;14.43;10.67;;;15.50;99.90;;;;;;5058077;28;20202;-76
2021/06/21 06:04:49;;;;;;;13.97;10.23;;;15.50;99.90;;;;;;5059398;28;20185;-83
2021/06/21 06:07:17;;;;;;;16.13;10.53;;;15.60;99.90;;;;;;5052626;28;20195;-83
2021/06/21 06:09:49;;;;;;;14.80;10.70;;;15.60;99.90;;;;;;5048786;28;20188;-85
2021/06/21 06:12:16;;;;;;;12.17;9.13;;;15.80;99.90;;;;;;5042330;28;20214;-85
2021/06/21 06:14:42;;;;;;;12.33;9.00;;;16.00;99.90;;;;;;5048691;28;20246;-84
2021/06/21 06:17:10;;;;;;;11.23;9.07;;;16.00;99.90;;;;;;5049380;28;20238;-84
2021/06/21 06:19:37;;;;;;;10.27;8.97;;;15.70;99.90;;;;;;5050926;28;20188;-85
2021/06/21 06:22:06;;;;;;;13.97;9.30;;;15.70;99.90;;;;;;5055875;28;20231;-86
2021/06/21 06:24:33;;;;;;;11.93;8.80;;;15.80;99.90;;;;;;5056687;28;20204;-83
2021/06/21 06:27:00;;;;;;;11.93;8.20;;;15.80;99.90;;;;;;5048002;28;20200;-84
2021/06/21 06:29:29;;;;;;;10.57;7.97;;;15.70;99.90;;;;;;5049415;28;20278;-82
2021/06/21 06:31:56;;;;;;;10.23;8.50;;;15.60;99.90;;;;;;5041696;28;20240;-83
2021/06/21 06:34:24;;;;;;;11.27;9.07;;;15.50;99.90;;;;;;5047945;28;20242;-83
2021/06/21 06:36:51;;;;;;;11.60;8.83;;;15.60;99.90;;;;;;5049827;28;20242;-83
2021/06/21 06:39:19;;;;;;;10.93;8.47;;;15.60;99.90;;;;;;5041793;28;20203;-82
2021/06/21 06:41:46;;;;;;;11.90;8.53;;;15.50;99.90;;;;;;5050722;28;20702;-83
2021/06/21 06:44:13;;;;;;;10.23;9.13;;;15.30;99.90;;;;;;5054912;28;20723;-84
2021/06/21 06:46:41;;;;;;;12.43;9.23;;;15.40;99.90;;;;;;5053523;28;20276;-82
2021/06/21 06:49:08;;;;;;;10.80;8.40;;;15.50;99.90;;;;;;5058131;28;20230;-84
2021/06/21 06:51:39;;;;;;;9.23;7.77;;;15.40;99.90;;;;;;5057931;28;20759;-83
2021/06/21 06:54:11;;;;;;;10.87;7.67;;;15.50;99.90;;;;;;5040687;28;20282;-87
2021/06/21 06:59:23;;;;;;;7.83;6.10;;;15.40;99.90;;;;;;5043306;28;20187;-85
2021/06/21 07:01:50;;;;;;;5.97;5.33;;;15.30;99.90;;;;;;5052779;28;20660;-82
2021/06/21 07:04:17;;;;;;;5.77;4.43;;;15.20;99.90;;;;;;5045153;28;20197;-83
2021/06/21 07:06:44;;;;;;;6.03;4.97;;;15.20;99.90;;;;;;5050393;28;20284;-85
2021/06/21 07:09:12;;;;;;;5.90;4.80;;;15.00;99.90;;;;;;5051642;28;20254;-83
2021/06/21 07:11:40;;;;;;;7.27;5.00;;;14.90;99.90;;;;;;5039097;28;20236;-84
2021/06/21 07:14:09;;;;;;;7.23;5.73;;;15.00;99.90;;;;;;5035669;28;20706;-84
2021/06/21 07:16:37;;;;;;;8.87;6.20;;;15.00;99.90;;;;;;5045031;28;20258;-86
2021/06/21 07:19:04;;;;;;;8.83;7.20;;;14.90;99.90;;;;;;5052614;28;20196;-83
2021/06/21 07:21:31;;;;;;;9.63;6.93;;;15.10;99.90;;;;;;5054819;28;20200;-85
2021/06/21 07:24:02;;;;;;;9.43;6.80;;;15.20;99.90;;;;;;5047938;28;20280;-86
2021/06/21 07:26:32;;;;;;;9.80;6.77;;;15.10;99.90;;;;;;5047049;28;20647;-85
2021/06/21 07:29:00;;;;;;;9.57;7.30;;;15.10;99.90;;;;;;5046695;28;20218;-83
2021/06/21 07:31:27;;;;;;;7.47;5.43;;;15.00;99.90;;;;;;5055597;28;20565;-85
2021/06/21 07:34:35;;;;;;;;;;;;;;;;;;;;;
2021/06/21 07:37:07;;;;;;;6.57;5.37;;;14.90;99.90;;;;;;5026104;28;20215;-84
2021/06/21 07:39:48;;;;;;;6.90;4.57;;;14.90;99.90;;;;;;5049663;28;20201;-87
2021/06/21 07:42:25;;;;;;;7.20;5.23;;;14.90;99.90;;;;;;5035546;28;20212;-86
2021/06/21 07:59:17;;;;;;;5.43;4.17;;;15.60;99.90;;;;;;4848393;29;20210;-85
2021/06/21 08:25:50;;;;;;;4.90;3.93;;;15.60;99.90;;;;;;4735547;30;20202;-84
2021/06/21 08:28:19;;;;;;;4.80;4.27;;;16.00;99.90;;;;;;4825588;29;20211;-83
2021/06/21 08:30:48;;;;;;;5.70;4.37;;;16.50;99.90;;;;;;4958103;28;20289;-82
2021/06/21 08:33:16;;;;;;;5.53;3.97;;;16.80;99.90;;;;;;5009966;28;20198;-85
2021/06/21 08:35:43;;;;;;;5.43;4.30;;;16.70;99.90;;;;;;5061986;28;20207;-83
2021/06/21 08:38:10;;;;;;;4.37;3.80;;;17.10;99.90;;;;;;5060784;28;20204;-86
2021/06/21 08:40:38;;;;;;;4.13;3.53;;;17.40;99.90;;;;;;5060045;28;20200;-84
2021/06/21 08:43:07;;;;;;;5.17;3.67;;;17.70;99.90;;;;;;5051608;28;20203;-83
2021/06/21 08:45:35;;;;;;;4.53;3.80;;;17.30;99.90;;;;;;5052137;28;20212;-87
2021/06/21 08:48:07;;;;;;;4.13;3.47;;;17.60;99.90;;;;;;5055514;28;20204;-82
2021/06/21 08:50:35;;;;;;;4.20;3.80;;;18.00;99.90;;;;;;5055937;28;20207;-84
2021/06/21 08:53:03;;;;;;;3.40;3.10;;;18.60;99.90;;;;;;5055855;28;20250;-85
2021/06/21 08:55:30;;;;;;;4.13;3.30;;;18.50;99.90;;;;;;5050178;28;20265;-82
2021/06/21 08:57:57;;;;;;;3.90;3.60;;;19.00;99.90;;;;;;5040903;28;20688;-82
2021/06/21 09:00:25;;;;;;;3.97;3.60;;;19.40;99.90;;;;;;5049141;28;20258;-84
2021/06/21 09:02:53;;;;;;;3.47;3.17;;;19.40;99.90;;;;;;5047431;28;20196;-83
2021/06/21 09:05:20;;;;;;;3.70;3.00;;;19.00;99.90;;;;;;5044248;28;20635;-79
2021/06/21 09:07:48;;;;;;;3.57;3.27;;;19.00;99.90;;;;;;5049476;28;20206;-82
2021/06/21 09:10:24;;;;;;;4.00;3.43;;;18.80;99.90;;;;;;5053599;28;20235;-81
2021/06/21 09:13:05;;;;;;;4.53;3.37;;;18.20;99.90;;;;;;5047507;28;20227;-81
2021/06/21 09:15:35;;;;;;;3.53;3.00;;;18.10;99.90;;;;;;5046701;28;20204;-84
2021/06/21 09:18:35;;;;;;;3.90;3.43;;;18.00;99.90;;;;;;5053786;28;20211;-81
2021/06/21 09:21:26;;;;;;;3.67;3.27;;;17.60;99.90;;;;;;5051130;28;20192;-83
2021/06/21 09:23:54;;;;;;;3.73;3.43;;;17.50;99.90;;;;;;5053558;28;20200;-81
2021/06/21 09:26:23;;;;;;;4.40;3.50;;;17.30;99.90;;;;;;5053273;28;20196;-82
2021/06/21 09:28:51;;;;;;;5.63;3.27;;;17.30;99.90;;;;;;5042272;28;20206;-82
2021/06/21 09:31:19;;;;;;;5.60;3.47;;;17.40;99.90;;;;;;5053452;28;20216;-83
2021/06/21 09:33:48;;;;;;;3.60;3.30;;;17.50;99.90;;;;;;5048416;28;20196;-83
2021/06/21 09:36:34;;;;;;;4.50;3.53;;;17.70;99.90;;;;;;5043487;28;20196;-80
2021/06/21 09:39:23;;;;;;;3.90;3.13;;;17.70;99.90;;;;;;5045701;28;20204;-83
2021/06/21 09:42:06;;;;;;;4.40;3.13;;;17.80;99.90;;;;;;5045913;28;20207;-81
2021/06/21 09:44:34;;;;;;;4.67;3.50;;;17.70;99.90;;;;;;5052506;28;20699;-84
2021/06/21 09:47:15;;;;;;;3.50;3.20;;;17.50;99.90;;;;;;5060338;28;20639;-80
2021/06/21 09:50:15;;;;;;;4.40;3.27;;;17.50;99.90;;;;;;5053480;28;20188;-81
2021/06/21 09:52:49;;;;;;;4.00;3.60;;;17.60;99.90;;;;;;5037011;28;20720;-81
2021/06/21 09:55:31;;;;;;;4.17;3.77;;;17.80;99.90;;;;;;5048393;28;20214;-78
2021/06/21 09:58:10;;;;;;;5.53;3.40;;;18.00;99.90;;;;;;5048901;28;20282;-80
2021/06/21 10:00:39;;;;;;;4.33;3.40;;;18.20;99.90;;;;;;5049724;28;20593;-81
2021/06/21 10:03:09;;;;;;;5.83;3.60;;;17.80;99.90;;;;;;5056668;28;20619;-81
2021/06/21 10:05:40;;;;;;;3.97;3.67;;;17.80;99.90;;;;;;5056665;28;20248;-80
2021/06/21 10:08:14;;;;;;;4.23;3.80;;;17.80;99.90;;;;;;5057372;28;20196;-84
2021/06/21 10:10:42;;;;;;;3.90;3.60;;;17.70;99.90;;;;;;5045872;28;20205;-84
2021/06/21 10:13:11;;;;;;;5.97;3.47;;;17.50;99.90;;;;;;5049838;28;20311;-85
2021/06/21 10:15:39;;;;;;;4.13;3.73;;;17.60;99.90;;;;;;5044343;28;20196;-80
2021/06/21 10:18:07;;;;;;;4.23;3.83;;;17.70;99.90;;;;;;5046711;28;20196;-81
2021/06/21 10:20:35;;;;;;;3.70;3.40;;;17.60;99.90;;;;;;5056619;28;20592;-80
2021/06/21 10:23:05;;;;;;;4.20;3.80;;;17.60;99.90;;;;;;5047807;28;20230;-80
2021/06/21 10:25:34;;;;;;;4.03;3.73;;;17.90;99.90;;;;;;5053130;28;20275;-81
2021/06/21 10:28:02;;;;;;;4.60;3.80;;;18.00;99.90;;;;;;5044319;28;20285;-80
2021/06/21 10:30:31;;;;;;;5.57;5.00;;;18.20;99.90;;;;;;5059885;28;20230;-80
2021/06/21 10:33:00;;;;;;;5.90;5.40;;;17.90;99.90;;;;;;5048264;28;20219;-83
2021/06/21 10:35:31;;;;;;;7.77;7.07;;;17.70;99.90;;;;;;5048713;28;20651;-82
2021/06/21 10:38:00;;;;;;;11.63;8.03;;;17.60;99.90;;;;;;5060714;28;20180;-82
2021/06/21 10:40:29;;;;;;;7.20;6.57;;;17.50;99.90;;;;;;5044947;28;20192;-84
2021/06/21 10:42:58;;;;;;;7.83;6.87;;;17.40;99.90;;;;;;5037258;28;20707;-80
2021/06/21 10:45:28;;;;;;;5.73;5.23;;;17.50;99.90;;;;;;5055302;28;20193;-82
2021/06/21 10:48:09;;;;;;;6.63;5.43;;;17.40;99.90;;;;;;5052687;28;20193;-80
2021/06/21 10:50:50;;;;;;;4.87;4.37;;;17.50;99.90;;;;;;5045891;28;20235;-80
2021/06/21 10:53:17;;;;;;;5.73;5.00;;;17.60;99.90;;;;;;5034118;28;20231;-81
2021/06/21 10:55:50;;;;;;;7.60;5.10;;;17.70;99.90;;;;;;5038793;28;20211;-80
2021/06/21 10:58:45;;;;;;;5.00;4.60;;;18.10;99.90;;;;;;5043791;28;20538;-78
2021/06/21 11:01:18;;;;;;;5.03;4.50;;;17.90;99.90;;;;;;5050303;28;20188;-78
2021/06/21 11:03:45;;;;;;;4.53;4.13;;;18.00;99.90;;;;;;5059362;28;20223;-79
2021/06/21 11:06:33;;;;;;;4.67;4.27;;;18.10;99.90;;;;;;5063126;28;20642;-79
2021/06/21 11:09:00;;;;;;;5.23;4.40;;;18.00;99.90;;;;;;5049711;28;20234;-79
2021/06/21 11:11:48;;;;;;;4.17;3.77;;;18.00;99.90;;;;;;5042619;28;20196;-80
2021/06/21 11:14:24;;;;;;;4.87;4.47;;;18.00;99.90;;;;;;5049817;28;20201;-82
2021/06/21 11:17:15;;;;;;;7.90;4.73;;;17.80;99.90;;;;;;5054174;28;20287;-78
2021/06/21 11:19:42;;;;;;;5.77;4.90;;;18.00;99.90;;;;;;5046043;28;20291;-80
2021/06/21 11:22:10;;;;;;;5.07;4.57;;;17.90;99.90;;;;;;5044708;28;20188;-78
2021/06/21 11:24:55;;;;;;;5.67;5.17;;;17.80;99.90;;;;;;5041331;28;20612;-81
2021/06/21 11:27:24;;;;;;;5.93;5.40;;;18.10;99.90;;;;;;5049542;28;20193;-79
2021/06/21 11:29:54;;;;;;;5.67;5.17;;;18.30;99.90;;;;;;5053268;28;20417;-80
2021/06/21 11:32:21;;;;;;;5.80;5.17;;;18.50;99.90;;;;;;5038004;28;20299;-80
2021/06/21 11:34:51;;;;;;;6.37;5.33;;;18.20;99.90;;;;;;5039822;28;20212;-79
2021/06/21 11:37:40;;;;;;;6.60;6.00;;;18.00;99.90;;;;;;5032512;28;20197;-79
2021/06/21 11:40:30;;;;;;;6.10;5.50;;;18.10;99.90;;;;;;5034589;28;20225;-81
2021/06/21 11:43:14;;;;;;;6.07;5.37;;;18.00;99.90;;;;;;5039366;28;20238;-78
2021/06/21 11:45:57;;;;;;;5.33;4.83;;;18.00;99.90;;;;;;5054282;28;20207;-78
2021/06/21 11:48:26;;;;;;;5.43;4.93;;;18.20;99.90;;;;;;5052913;28;20326;-78
2021/06/21 11:50:55;;;;;;;11.13;5.00;;;18.20;99.90;;;;;;5043636;28;20291;-79
2021/06/21 11:53:24;;;;;;;4.80;4.30;;;18.00;99.90;;;;;;5045272;28;20224;-77
2021/06/21 11:55:52;;;;;;;5.30;4.33;;;17.90;99.90;;;;;;5054227;28;20211;-80
2021/06/21 11:58:29;;;;;;;4.67;4.27;;;18.00;99.90;;;;;;5053130;28;20318;-78
2021/06/21 12:00:58;;;;;;;4.90;4.50;;;18.20;99.90;;;;;;5026327;28;20283;-79
2021/06/21 12:03:33;;;;;;;4.50;4.10;;;18.30;99.90;;;;;;5049474;28;20204;-77
2021/06/21 12:06:00;;;;;;;5.60;4.40;;;18.40;99.90;;;;;;5047411;28;20231;-78
2021/06/21 12:08:27;;;;;;;4.63;4.23;;;18.20;99.90;;;;;;5031168;28;20201;-81
2021/06/21 12:10:54;;;;;;;4.80;4.40;;;17.80;99.90;;;;;;5039919;28;20184;-80
2021/06/21 12:13:23;;;;;;;4.70;4.13;;;17.80;99.90;;;;;;5052876;28;20303;-81
2021/06/21 12:15:50;;;;;;;4.80;4.27;;;17.90;99.90;;;;;;5047753;28;20197;-82
2021/06/21 12:18:27;;;;;;;5.00;4.60;;;17.70;99.90;;;;;;5045208;28;20590;-79
2021/06/21 12:20:54;;;;;;;4.87;4.47;;;17.60;99.90;;;;;;5043835;28;20195;-79
2021/06/21 12:23:24;;;;;;;6.03;4.67;;;17.60;99.90;;;;;;5055156;28;20227;-79
2021/06/21 12:25:51;;;;;;;4.40;4.00;;;17.50;99.90;;;;;;5044505;28;20192;-81
2021/06/21 12:28:20;;;;;;;5.97;4.70;;;17.80;99.90;;;;;;5053817;28;20665;-81
2021/06/21 12:30:49;;;;;;;5.60;5.10;;;17.80;99.90;;;;;;5033245;28;20251;-80
2021/06/21 12:33:30;;;;;;;5.37;4.90;;;17.60;99.90;;;;;;5040184;28;20218;-79
2021/06/21 12:36:19;;;;;;;5.97;5.43;;;17.60;99.90;;;;;;5037463;28;20242;-81
2021/06/21 12:38:56;;;;;;;8.17;6.40;;;17.70;99.90;;;;;;5030207;28;20224;-81
2021/06/21 12:41:27;;;;;;;7.57;6.37;;;17.80;99.90;;;;;;5036234;28;20338;-81
2021/06/21 12:43:57;;;;;;;7.17;6.47;;;17.90;99.90;;;;;;5038411;28;20200;-81
2021/06/21 12:46:26;;;;;;;7.37;6.67;;;18.10;99.90;;;;;;5033583;28;20226;-82
2021/06/21 12:48:55;;;;;;;6.83;6.23;;;17.60;99.90;;;;;;5036647;28;20295;-81
2021/06/21 12:51:23;;;;;;;7.40;6.70;;;17.30;99.90;;;;;;5043644;28;20283;-81
2021/06/21 12:53:51;;;;;;;7.67;6.97;;;17.10;99.90;;;;;;5038661;28;20201;-79
2021/06/21 12:56:28;;;;;;;7.30;6.60;;;17.40;99.90;;;;;;5036149;28;20291;-79
2021/06/21 12:58:56;;;;;;;9.33;7.30;;;17.60;99.90;;;;;;5052972;28;20235;-81
2021/06/21 13:01:31;;;;;;;8.03;7.33;;;17.80;99.90;;;;;;5053150;28;20200;-83
2021/06/21 13:04:13;;;;;;;8.33;7.53;;;17.80;99.90;;;;;;5051581;28;20588;-82
2021/06/21 13:06:42;;;;;;;6.93;6.23;;;17.70;99.90;;;;;;5051653;28;20198;-81
2021/06/21 13:09:10;;;;;;;11.77;7.27;;;17.40;99.90;;;;;;5036126;28;20199;-80
2021/06/21 13:11:52;;;;;;;11.30;7.37;;;17.40;99.90;;;;;;5045566;28;20203;-81
2021/06/21 13:14:20;;;;;;;8.87;7.33;;;17.20;99.90;;;;;;5051776;28;20216;-81
2021/06/21 13:16:48;;;;;;;13.07;7.97;;;17.20;99.90;;;;;;5047316;28;20185;-81
2021/06/21 13:19:18;;;;;;;9.17;8.27;;;17.20;99.90;;;;;;5037559;28;20291;-81
2021/06/21 13:21:47;;;;;;;9.60;8.50;;;17.10;99.90;;;;;;5040801;28;20201;-82
2021/06/21 13:24:16;;;;;;;9.03;8.20;;;17.10;99.90;;;;;;5047837;28;20257;-83
2021/06/21 13:26:48;;;;;;;10.33;8.63;;;17.10;99.90;;;;;;5053914;28;20208;-82
2021/06/21 13:29:25;;;;;;;10.40;9.40;;;17.20;99.90;;;;;;5046398;28;20192;-83
2021/06/21 13:31:56;;;;;;;10.90;9.40;;;17.20;99.90;;;;;;5047860;28;20204;-84
2021/06/21 13:34:42;;;;;;;11.37;9.97;;;16.90;99.90;;;;;;5041831;28;20579;-83